Time;durP1;ratioP1;P1;durP2;ratioP2;P2;SDS_P1;SDS_P2;PMS_P1;PMS_P2;Temp;Humidity;BMP_temperature;BMP_pressure;BME280_temperature;BME280_humidity;BME280_pressure;Samples;Min_cycle;Max_cycle;Signal;HPM_P1;HPM_P2
2021/12/21 00:01:50;;;;;;;7.15;3.17;;;-0.80;99.90;;;;;;10172220;28;83694;-43
2021/12/21 00:06:50;;;;;;;9.90;3.88;;;-0.80;99.90;;;;;;10172659;28;83804;-43
2021/12/21 00:11:51;;;;;;;4.72;2.72;;;-0.80;99.90;;;;;;10172589;28;83665;-43
2021/12/21 00:17:12;;;;;;;6.10;3.20;;;-0.80;99.90;;;;;;10172533;28;83702;-42
2021/12/21 00:27:32;;;;;;;12.57;3.08;;;-0.90;99.90;;;;;;10172132;28;83784;-42
2021/12/21 00:32:34;;;;;;;5.80;2.88;;;-1.00;99.90;;;;;;10170358;28;86137;-42
2021/12/21 00:37:39;;;;;;;6.68;3.38;;;-0.90;99.90;;;;;;10170660;28;86489;-44
2021/12/21 00:42:40;;;;;;;5.63;3.15;;;-0.90;99.90;;;;;;10171128;28;83979;-42
2021/12/21 00:47:47;;;;;;;6.75;3.15;;;-0.90;99.90;;;;;;10171224;28;83709;-44
2021/12/21 00:52:51;;;;;;;8.82;4.13;;;-1.00;99.90;;;;;;10171847;28;83663;-42
2021/12/21 00:57:52;;;;;;;13.07;4.05;;;-1.10;99.90;;;;;;10170861;28;84131;-42
2021/12/21 01:02:53;;;;;;;5.43;2.50;;;-1.10;99.90;;;;;;10171431;28;83855;-43
2021/12/21 01:07:56;;;;;;;6.45;3.28;;;-1.20;99.90;;;;;;10169377;28;83817;-43
2021/12/21 01:18:16;;;;;;;6.18;2.40;;;-1.10;99.90;;;;;;10169786;28;83615;-43
2021/12/21 01:28:49;;;;;;;10.40;3.38;;;-1.20;99.90;;;;;;10169847;28;83625;-43
2021/12/21 01:39:46;;;;;;;7.60;3.30;;;-1.20;99.90;;;;;;10149687;28;83908;-44
2021/12/21 01:49:49;;;;;;;5.68;3.30;;;-1.20;99.90;;;;;;10167259;28;85211;-44
2021/12/21 01:54:51;;;;;;;4.95;2.25;;;-1.20;99.90;;;;;;10167194;28;84191;-43
2021/12/21 01:59:51;;;;;;;7.38;3.03;;;-1.20;99.90;;;;;;10168558;28;84183;-42
2021/12/21 02:04:52;;;;;;;5.72;3.13;;;-1.20;99.90;;;;;;10167601;28;85325;-44
2021/12/21 02:09:53;;;;;;;4.65;2.65;;;-1.30;99.90;;;;;;10166625;28;84230;-44
2021/12/21 02:14:57;;;;;;;6.20;3.08;;;-1.30;99.90;;;;;;10167511;28;86451;-43
2021/12/21 02:25:38;;;;;;;7.00;3.50;;;-1.20;99.90;;;;;;10165395;28;84175;-42
2021/12/21 02:30:42;;;;;;;7.03;3.92;;;-1.10;99.90;;;;;;10166180;28;86387;-42
2021/12/21 02:35:43;;;;;;;7.47;2.95;;;-1.40;99.90;;;;;;10167135;28;84566;-41
2021/12/21 02:40:45;;;;;;;6.53;2.92;;;-1.40;99.90;;;;;;10167131;28;85310;-43
2021/12/21 02:45:46;;;;;;;6.00;2.85;;;-1.40;99.90;;;;;;10167611;28;84045;-42
2021/12/21 02:50:47;;;;;;;7.93;3.10;;;-1.40;99.90;;;;;;10166441;28;84088;-43
2021/12/21 02:55:48;;;;;;;6.50;3.30;;;-1.40;99.90;;;;;;10167689;28;84057;-42
2021/12/21 03:00:52;;;;;;;8.15;3.75;;;-1.40;99.90;;;;;;10165814;28;83813;-43
2021/12/21 03:05:56;;;;;;;4.43;2.85;;;-1.40;99.90;;;;;;10166979;28;84038;-42
2021/12/21 03:16:00;;;;;;;5.65;2.47;;;-1.50;99.90;;;;;;10167542;28;84274;-43
2021/12/21 03:21:01;;;;;;;7.65;3.97;;;-1.50;99.90;;;;;;10166500;28;83745;-43
2021/12/21 03:26:02;;;;;;;5.30;3.45;;;-1.50;99.90;;;;;;10165971;28;83731;-44
2021/12/21 03:31:03;;;;;;;8.40;3.10;;;-1.40;99.90;;;;;;10165451;28;83847;-43
2021/12/21 03:36:04;;;;;;;8.05;4.00;;;-1.60;99.90;;;;;;10166068;28;83714;-42
2021/12/21 03:41:11;;;;;;;6.65;2.55;;;-1.60;99.90;;;;;;10168534;28;84241;-42
2021/12/21 03:46:14;;;;;;;9.20;4.03;;;-1.50;99.90;;;;;;10166227;28;83701;-42
2021/12/21 03:51:17;;;;;;;7.97;3.65;;;-1.40;99.90;;;;;;10166262;28;84222;-42
2021/12/21 03:56:38;;;;;;;7.97;3.08;;;-1.50;99.90;;;;;;10165699;28;83724;-44
2021/12/21 04:01:39;;;;;;;5.70;3.25;;;-1.50;99.90;;;;;;10165466;28;84130;-43
2021/12/21 04:06:39;;;;;;;7.75;3.50;;;-1.50;99.90;;;;;;10165930;28;83635;-42
2021/12/21 04:11:40;;;;;;;6.88;3.85;;;-1.50;99.90;;;;;;10165369;28;84180;-42
2021/12/21 04:16:41;;;;;;;6.78;3.10;;;-1.60;99.90;;;;;;10165557;28;83628;-42
2021/12/21 04:21:42;;;;;;;6.95;2.92;;;-1.60;99.90;;;;;;10165083;28;84100;-42
2021/12/21 04:26:43;;;;;;;6.78;2.83;;;-1.50;99.90;;;;;;10165226;28;83751;-42
2021/12/21 04:31:44;;;;;;;6.85;3.67;;;-1.60;99.90;;;;;;10164848;28;84106;-42
2021/12/21 04:36:45;;;;;;;7.60;3.45;;;-1.60;99.90;;;;;;10164827;28;83779;-42
2021/12/21 04:41:46;;;;;;;9.30;3.83;;;-1.60;99.90;;;;;;10165584;28;84125;-41
2021/12/21 04:46:47;;;;;;;10.95;4.15;;;-1.50;99.90;;;;;;10167093;28;84275;-42
2021/12/21 04:51:47;;;;;;;7.72;3.75;;;-1.50;99.90;;;;;;10168544;28;84088;-43
2021/12/21 04:56:48;;;;;;;5.55;3.42;;;-1.50;99.90;;;;;;10171043;28;84109;-43
2021/12/21 05:01:49;;;;;;;5.82;3.33;;;-1.40;99.90;;;;;;10170662;28;83781;-42
2021/12/21 05:06:49;;;;;;;6.82;3.80;;;-1.50;99.90;;;;;;10170355;28;83736;-41
2021/12/21 05:11:51;;;;;;;9.45;4.40;;;-1.50;99.90;;;;;;10169107;28;84254;-42
2021/12/21 05:16:51;;;;;;;7.15;3.83;;;-1.50;99.90;;;;;;10171615;28;84250;-42
2021/12/21 05:21:52;;;;;;;12.02;4.72;;;-1.60;99.90;;;;;;10171078;28;83800;-42
2021/12/21 05:26:53;;;;;;;6.07;3.35;;;-1.60;99.90;;;;;;10170145;28;83956;-42
2021/12/21 05:31:53;;;;;;;4.97;3.13;;;-1.50;99.90;;;;;;10210371;23;85392;-47
2021/12/21 05:36:54;;;;;;;8.15;3.72;;;-1.60;99.90;;;;;;10191765;28;84313;-44
2021/12/21 05:41:56;;;;;;;8.50;3.75;;;-1.60;99.90;;;;;;10208295;28;83957;-44
2021/12/21 05:46:57;;;;;;;9.73;4.32;;;-1.60;99.90;;;;;;10207553;28;84854;-47
2021/12/21 05:51:57;;;;;;;5.60;2.65;;;-1.50;99.90;;;;;;10207218;28;84080;-41
2021/12/21 05:56:58;;;;;;;6.25;4.10;;;-1.50;99.90;;;;;;10205170;28;84170;-44
2021/12/21 06:01:59;;;;;;;9.43;4.18;;;-1.60;99.90;;;;;;10203643;28;87317;-46
2021/12/21 06:07:00;;;;;;;7.28;3.10;;;-1.60;99.90;;;;;;10201477;28;83883;-44
2021/12/21 06:27:27;;;;;;;6.68;3.58;;;-1.60;99.90;;;;;;10190723;28;83905;-44
2021/12/21 06:32:28;;;;;;;8.23;3.70;;;-1.60;99.90;;;;;;10200783;28;83843;-43
2021/12/21 06:37:29;;;;;;;9.90;4.50;;;-1.50;99.90;;;;;;10203378;28;83710;-45
2021/12/21 06:42:30;;;;;;;11.55;6.07;;;-1.40;99.90;;;;;;10200219;28;86012;-44
2021/12/21 06:52:51;;;;;;;10.02;4.72;;;-1.30;99.90;;;;;;10203530;28;83875;-44
2021/12/21 06:57:51;;;;;;;8.52;3.70;;;-1.30;99.90;;;;;;10205565;28;84116;-44
2021/12/21 07:02:52;;;;;;;8.80;4.50;;;-1.30;99.90;;;;;;10205529;28;84591;-45
2021/12/21 07:07:53;;;;;;;10.52;4.03;;;-1.30;99.90;;;;;;10202429;28;84115;-43
2021/12/21 07:18:24;;;;;;;8.68;4.22;;;-1.30;99.90;;;;;;10204160;28;83584;-52
2021/12/21 07:23:25;;;;;;;6.97;3.78;;;-1.40;99.90;;;;;;10202224;28;84656;-55
2021/12/21 07:28:26;;;;;;;8.77;3.83;;;-1.50;99.90;;;;;;10196023;28;83879;-55
2021/12/21 07:33:26;;;;;;;6.13;3.70;;;-1.50;99.90;;;;;;10198103;28;85000;-58
2021/12/21 07:38:30;;;;;;;8.75;4.25;;;-1.70;99.90;;;;;;10201154;28;84182;-62
2021/12/21 07:43:31;;;;;;;12.32;3.88;;;-1.80;99.90;;;;;;10198752;28;85161;-59
2021/12/21 07:48:31;;;;;;;8.52;4.18;;;-1.90;99.90;;;;;;10199665;28;83713;-63
2021/12/21 07:53:32;;;;;;;8.05;3.70;;;-1.80;99.90;;;;;;10197119;28;83801;-50
2021/12/21 07:58:34;;;;;;;10.07;4.75;;;-1.70;99.90;;;;;;10198766;28;84197;-50
2021/12/21 08:03:36;;;;;;;5.63;3.15;;;-1.70;99.90;;;;;;10192381;28;84090;-53
2021/12/21 08:08:40;;;;;;;6.00;3.30;;;-1.70;99.90;;;;;;10195967;28;83289;-50
2021/12/21 08:13:43;;;;;;;6.82;4.57;;;-1.70;99.90;;;;;;10197066;28;84110;-51
2021/12/21 08:18:44;;;;;;;8.13;3.47;;;-1.80;99.90;;;;;;10194542;28;83497;-52
2021/12/21 08:23:46;;;;;;;6.20;3.70;;;-1.70;99.90;;;;;;10205390;28;83622;-51
2021/12/21 08:28:46;;;;;;;9.95;4.53;;;-1.80;99.90;;;;;;10201491;28;84165;-52
2021/12/21 08:33:47;;;;;;;6.57;3.15;;;-1.60;99.90;;;;;;10202245;28;83748;-50
2021/12/21 08:38:48;;;;;;;6.20;3.67;;;-1.60;99.90;;;;;;10198950;28;84028;-54
2021/12/21 08:43:49;;;;;;;12.95;4.80;;;-1.50;99.90;;;;;;10204171;28;84154;-49
2021/12/21 08:48:49;;;;;;;9.50;4.03;;;-1.30;99.90;;;;;;10204648;28;83971;-52
2021/12/21 08:53:50;;;;;;;12.55;5.60;;;-1.60;99.90;;;;;;10204722;28;84173;-53
2021/12/21 08:58:51;;;;;;;10.90;3.95;;;-1.50;99.90;;;;;;10185745;28;83530;-56
2021/12/21 09:03:52;;;;;;;8.82;4.15;;;-1.40;99.90;;;;;;10203526;28;85167;-55
2021/12/21 09:08:53;;;;;;;6.25;3.53;;;-1.40;99.90;;;;;;10203856;28;84129;-56
2021/12/21 09:13:54;;;;;;;8.75;4.40;;;-1.30;99.90;;;;;;10205464;28;83347;-52
2021/12/21 09:18:55;;;;;;;11.10;5.15;;;-1.20;99.90;;;;;;10199771;28;83602;-55
2021/12/21 09:23:56;;;;;;;8.57;3.85;;;-1.20;99.90;;;;;;10202905;28;83487;-53
2021/12/21 09:28:57;;;;;;;12.13;4.47;;;-1.10;99.90;;;;;;10202057;28;83275;-64
2021/12/21 09:33:57;;;;;;;9.68;4.28;;;-1.00;99.90;;;;;;10196216;28;84021;-58
2021/12/21 09:38:59;;;;;;;11.77;5.05;;;-1.10;99.90;;;;;;10197298;28;84624;-58
2021/12/21 09:44:01;;;;;;;10.05;5.43;;;-1.10;99.90;;;;;;10198463;28;84845;-51
2021/12/21 09:49:02;;;;;;;13.27;5.05;;;-1.10;99.90;;;;;;10202930;28;83438;-56
2021/12/21 09:54:03;;;;;;;13.63;5.97;;;-1.10;99.90;;;;;;10198954;28;83755;-60
2021/12/21 09:59:03;;;;;;;12.43;6.35;;;-1.10;99.90;;;;;;10194109;28;83445;-56
2021/12/21 10:04:04;;;;;;;19.42;6.47;;;-1.10;99.90;;;;;;10195438;28;83713;-58
2021/12/21 10:09:06;;;;;;;11.98;4.88;;;-1.30;99.90;;;;;;10199454;28;84197;-55
2021/12/21 10:14:07;;;;;;;13.85;5.55;;;-1.10;99.90;;;;;;10199626;28;83404;-56
2021/12/21 10:19:08;;;;;;;12.68;6.38;;;-1.00;99.90;;;;;;10203140;28;83281;-55
2021/12/21 10:24:09;;;;;;;12.25;6.68;;;-0.80;99.90;;;;;;10200648;28;83307;-50
2021/12/21 10:29:13;;;;;;;12.18;5.95;;;-0.70;99.90;;;;;;10203214;28;84290;-54
2021/12/21 10:34:18;;;;;;;9.77;4.45;;;-1.00;99.90;;;;;;10202180;28;85965;-49
2021/12/21 10:39:24;;;;;;;7.88;4.10;;;-1.20;99.90;;;;;;10203853;28;85149;-51
2021/12/21 10:44:25;;;;;;;11.35;4.55;;;-1.10;99.90;;;;;;10206386;28;84545;-50
2021/12/21 10:49:28;;;;;;;9.05;4.63;;;-1.00;99.90;;;;;;10205529;28;83701;-54
2021/12/21 10:54:38;;;;;;;11.23;4.07;;;-1.00;99.90;;;;;;10206269;28;84213;-50
2021/12/21 10:59:42;;;;;;;11.25;4.70;;;-1.00;99.90;;;;;;10204354;28;84132;-54
2021/12/21 11:04:46;;;;;;;9.10;4.97;;;-1.00;99.90;;;;;;10206032;28;83301;-49
2021/12/21 11:09:56;;;;;;;9.43;4.57;;;-0.90;99.90;;;;;;10205483;28;83774;-51
2021/12/21 11:15:00;;;;;;;7.38;4.38;;;-0.90;99.90;;;;;;10206529;28;83475;-53
2021/12/21 11:20:01;;;;;;;10.05;5.63;;;-0.70;99.90;;;;;;10205264;28;83873;-53
2021/12/21 11:25:01;;;;;;;7.32;3.83;;;-0.80;99.90;;;;;;10203998;28;86069;-55
2021/12/21 11:30:08;;;;;;;11.13;5.32;;;-0.70;99.90;;;;;;10211620;23;84959;-44
2021/12/21 11:40:14;;;;;;;6.45;3.40;;;-0.80;99.90;;;;;;10168179;28;84137;-46
2021/12/21 11:45:20;;;;;;;10.10;4.93;;;-0.70;99.90;;;;;;10167321;28;84993;-46
2021/12/21 11:50:22;;;;;;;13.35;4.95;;;-0.80;99.90;;;;;;10166740;28;86358;-47
2021/12/21 11:55:25;;;;;;;14.23;6.78;;;-0.80;99.90;;;;;;10170292;28;84883;-45
2021/12/21 12:00:30;;;;;;;10.95;4.60;;;-0.70;99.90;;;;;;10173623;28;84724;-46
2021/12/21 12:05:32;;;;;;;14.93;6.60;;;-0.50;99.90;;;;;;10173901;28;84937;-45
2021/12/21 12:10:37;;;;;;;6.95;3.97;;;-0.30;99.90;;;;;;10172819;28;84409;-45
2021/12/21 12:15:43;;;;;;;13.60;5.35;;;-0.20;99.90;;;;;;10172694;28;84879;-46
2021/12/21 12:20:44;;;;;;;13.23;4.43;;;-0.40;99.90;;;;;;10171400;28;87199;-46
2021/12/21 12:25:59;;;;;;;8.25;4.20;;;-0.50;99.90;;;;;;10171605;28;84891;-47
2021/12/21 12:31:00;;;;;;;11.02;5.50;;;-0.50;99.90;;;;;;10171852;28;84327;-50
2021/12/21 12:36:04;;;;;;;15.18;6.18;;;-0.40;99.90;;;;;;10171905;28;84174;-45
2021/12/21 12:41:05;;;;;;;13.38;6.10;;;-0.30;99.90;;;;;;10171365;28;84835;-47
2021/12/21 12:46:08;;;;;;;12.02;5.30;;;-0.40;99.90;;;;;;10171165;28;84118;-50
2021/12/21 12:51:24;;;;;;;12.07;5.25;;;-0.50;99.90;;;;;;10171144;28;84230;-47
2021/12/21 12:56:26;;;;;;;16.60;6.55;;;-0.50;99.90;;;;;;10170664;28;84899;-46
2021/12/21 13:01:31;;;;;;;11.00;5.70;;;-0.60;99.90;;;;;;10171581;28;85062;-45
2021/12/21 13:06:34;;;;;;;11.07;5.65;;;-0.50;99.90;;;;;;10171695;28;85087;-46
2021/12/21 13:11:40;;;;;;;15.60;5.10;;;-0.50;99.90;;;;;;10172318;28;84071;-46
2021/12/21 13:16:41;;;;;;;9.13;4.25;;;-0.40;99.90;;;;;;10170437;28;85013;-46
2021/12/21 13:21:51;;;;;;;14.00;5.65;;;-0.40;99.90;;;;;;10170453;28;84866;-46
2021/12/21 13:26:55;;;;;;;13.02;6.82;;;-0.40;99.90;;;;;;10171025;28;84969;-49
2021/12/21 13:31:57;;;;;;;11.25;5.22;;;-0.40;99.90;;;;;;10169926;28;84913;-47
2021/12/21 13:37:02;;;;;;;10.98;5.15;;;-0.50;99.90;;;;;;10170805;28;84887;-47
2021/12/21 13:42:14;;;;;;;13.65;5.65;;;-0.40;99.90;;;;;;10167918;28;86254;-48
2021/12/21 13:47:20;;;;;;;9.10;4.35;;;-0.40;99.90;;;;;;10169401;28;84713;-48
2021/12/21 13:52:23;;;;;;;9.80;4.05;;;-0.40;99.90;;;;;;10169653;28;84093;-46
2021/12/21 13:57:25;;;;;;;10.98;4.32;;;-0.70;99.90;;;;;;10151575;28;87101;-48
2021/12/21 14:02:34;;;;;;;11.38;4.93;;;-0.60;99.90;;;;;;10169124;28;84933;-47
2021/12/21 14:07:39;;;;;;;8.75;4.75;;;-0.50;99.90;;;;;;10169308;28;84087;-49
2021/12/21 14:12:40;;;;;;;10.68;5.15;;;-0.40;99.90;;;;;;10167262;28;85103;-46
2021/12/21 14:17:41;;;;;;;13.07;4.90;;;-0.40;99.90;;;;;;10166325;28;86952;-46
2021/12/21 14:22:43;;;;;;;10.20;5.82;;;-0.30;99.90;;;;;;10167251;28;84863;-47
2021/12/21 14:27:44;;;;;;;10.45;4.97;;;-0.20;99.90;;;;;;10168133;28;84810;-45
2021/12/21 14:33:08;;;;;;;10.45;4.47;;;-0.30;99.90;;;;;;10167519;28;84978;-45
2021/12/21 14:38:12;;;;;;;12.70;4.68;;;-0.30;99.90;;;;;;10166807;28;85087;-49
2021/12/21 14:43:28;;;;;;;9.98;5.72;;;-0.20;99.90;;;;;;10167125;28;84779;-50
2021/12/21 14:48:28;;;;;;;8.93;4.32;;;-0.30;99.90;;;;;;10166657;28;86985;-49
2021/12/21 14:53:41;;;;;;;4.53;3.38;;;-0.50;99.90;;;;;;10166480;28;84236;-48
2021/12/21 14:58:42;;;;;;;8.88;4.30;;;-0.50;99.90;;;;;;10146060;28;85043;-47
2021/12/21 15:03:43;;;;;;;6.50;3.30;;;-0.60;99.90;;;;;;10161733;28;84828;-62
2021/12/21 15:08:43;;;;;;;7.10;3.40;;;-0.70;99.90;;;;;;10162572;28;84995;-63
2021/12/21 15:13:44;;;;;;;7.22;3.47;;;-0.60;99.90;;;;;;10163292;28;85244;-56
2021/12/21 15:18:45;;;;;;;8.38;3.33;;;-0.70;99.90;;;;;;10157609;28;86378;-52
2021/12/21 15:23:45;;;;;;;8.48;3.58;;;-0.80;99.90;;;;;;10157914;28;84213;-60
2021/12/21 15:28:46;;;;;;;9.10;3.97;;;-0.90;99.90;;;;;;10156801;28;85361;-61
2021/12/21 15:33:48;;;;;;;9.52;3.97;;;-1.00;99.90;;;;;;10160157;28;85398;-62
2021/12/21 15:38:51;;;;;;;6.07;3.47;;;-0.80;99.90;;;;;;10156869;28;84290;-64
2021/12/21 15:43:51;;;;;;;8.52;3.95;;;-0.90;99.90;;;;;;10158681;28;84263;-47
2021/12/21 15:48:52;;;;;;;12.48;3.75;;;-0.90;99.90;;;;;;10157100;28;84034;-60
2021/12/21 15:53:53;;;;;;;8.20;4.03;;;-1.00;99.90;;;;;;10163313;28;85284;-46
2021/12/21 15:58:54;;;;;;;6.85;3.47;;;-0.90;99.90;;;;;;10166217;28;84071;-47
2021/12/21 16:03:55;;;;;;;9.23;3.85;;;-1.00;99.90;;;;;;10165490;28;84212;-46
2021/12/21 16:08:57;;;;;;;9.25;4.28;;;-1.00;99.90;;;;;;10159459;28;84077;-47
2021/12/21 16:13:57;;;;;;;15.45;4.65;;;-1.20;99.90;;;;;;10162939;28;84199;-47
2021/12/21 16:18:58;;;;;;;9.82;3.45;;;-1.10;99.90;;;;;;10164503;28;84996;-44
2021/12/21 16:24:00;;;;;;;7.57;4.07;;;-1.20;99.90;;;;;;10163352;28;87342;-44
2021/12/21 16:29:01;;;;;;;7.65;3.63;;;-1.20;99.90;;;;;;10143425;28;87260;-46
2021/12/21 16:34:02;;;;;;;10.23;4.45;;;-1.10;99.90;;;;;;10159985;28;84912;-45
2021/12/21 16:39:08;;;;;;;13.63;5.32;;;-1.10;99.90;;;;;;10163729;28;85503;-45
2021/12/21 16:44:09;;;;;;;11.05;4.50;;;-1.20;99.90;;;;;;10170849;28;84325;-45
2021/12/21 16:49:10;;;;;;;8.73;4.30;;;-1.10;99.90;;;;;;10171745;28;84290;-45
2021/12/21 16:54:10;;;;;;;11.10;4.38;;;-1.00;99.90;;;;;;10170182;28;84169;-47
2021/12/21 16:59:12;;;;;;;11.73;5.45;;;-1.10;99.90;;;;;;10160172;28;85027;-45
2021/12/21 17:04:13;;;;;;;10.98;4.30;;;-1.10;99.90;;;;;;10168588;28;84106;-47
2021/12/21 17:09:15;;;;;;;13.02;4.70;;;-1.30;99.90;;;;;;10168198;28;84829;-47
2021/12/21 17:14:16;;;;;;;10.52;4.97;;;-1.40;99.90;;;;;;10170229;28;84052;-52
2021/12/21 17:19:17;;;;;;;16.95;5.07;;;-1.50;99.90;;;;;;10166935;28;84152;-51
2021/12/21 17:24:17;;;;;;;8.32;3.50;;;-1.30;99.90;;;;;;10166954;28;84942;-51
2021/12/21 17:29:18;;;;;;;8.43;3.33;;;-1.20;99.90;;;;;;10191114;23;84581;-50
2021/12/21 17:34:19;;;;;;;7.25;4.35;;;-1.20;99.90;;;;;;10206994;28;85201;-56
2021/12/21 17:39:19;;;;;;;10.73;3.53;;;-1.30;99.90;;;;;;10208571;28;84800;-51
2021/12/21 17:44:20;;;;;;;8.23;4.30;;;-1.20;99.90;;;;;;10207604;28;85261;-54
2021/12/21 17:49:21;;;;;;;12.68;4.18;;;-1.20;99.90;;;;;;10207922;28;85016;-57
2021/12/21 17:54:21;;;;;;;9.70;4.65;;;-1.20;99.90;;;;;;10202026;28;85199;-55
2021/12/21 17:59:22;;;;;;;11.65;4.60;;;-1.20;99.90;;;;;;10195904;28;84972;-54
2021/12/21 18:04:23;;;;;;;11.00;4.20;;;-1.30;99.90;;;;;;10207069;28;84307;-54
2021/12/21 18:09:23;;;;;;;8.90;3.88;;;-1.30;99.90;;;;;;10207856;28;84867;-54
2021/12/21 18:14:24;;;;;;;8.13;3.67;;;-1.30;99.90;;;;;;10209726;28;84687;-56
2021/12/21 18:19:25;;;;;;;10.73;5.30;;;-1.40;99.90;;;;;;10207443;28;86084;-58
2021/12/21 18:24:27;;;;;;;9.70;3.72;;;-1.40;99.90;;;;;;10208577;28;84952;-54
2021/12/21 18:29:28;;;;;;;9.23;3.83;;;-1.30;99.90;;;;;;10202978;28;84430;-57
2021/12/21 18:34:29;;;;;;;6.78;3.17;;;-1.40;99.90;;;;;;10207177;28;86432;-56
2021/12/21 18:39:30;;;;;;;7.97;4.05;;;-1.40;99.90;;;;;;10202081;28;84233;-57
2021/12/21 18:44:31;;;;;;;12.23;4.15;;;-1.30;99.90;;;;;;10188726;28;85970;-58
2021/12/21 18:49:32;;;;;;;9.85;3.70;;;-1.40;99.90;;;;;;10206811;28;84139;-57
2021/12/21 18:54:34;;;;;;;10.45;4.85;;;-1.60;99.90;;;;;;10206626;28;84115;-58
2021/12/21 18:59:34;;;;;;;13.65;4.05;;;-1.50;99.90;;;;;;10205053;28;84973;-52
2021/12/21 19:04:35;;;;;;;8.70;3.85;;;-1.50;99.90;;;;;;10206146;28;84806;-56
2021/12/21 19:09:35;;;;;;;12.43;5.32;;;-1.40;99.90;;;;;;10204223;28;84984;-54
2021/12/21 19:14:36;;;;;;;9.95;4.13;;;-1.30;99.90;;;;;;10207146;28;84113;-58
2021/12/21 19:19:37;;;;;;;10.77;4.72;;;-1.40;99.90;;;;;;10205137;28;84875;-52
2021/12/21 19:24:37;;;;;;;9.82;4.13;;;-1.40;99.90;;;;;;10202479;28;84969;-56
2021/12/21 19:29:38;;;;;;;9.93;4.57;;;-1.50;99.90;;;;;;10205660;28;84378;-60
2021/12/21 19:34:39;;;;;;;9.05;2.83;;;-1.40;99.90;;;;;;10205011;28;87551;-54
2021/12/21 19:39:39;;;;;;;12.20;4.43;;;-1.40;99.90;;;;;;10199682;28;84986;-53
2021/12/21 19:44:40;;;;;;;11.18;3.88;;;-1.50;99.90;;;;;;10213588;28;84795;-52
2021/12/21 19:49:41;;;;;;;11.63;5.60;;;-1.70;99.90;;;;;;10204077;28;84612;-52
2021/12/21 19:54:42;;;;;;;10.82;4.63;;;-1.60;99.90;;;;;;10207106;28;85004;-54
2021/12/21 19:59:43;;;;;;;9.88;4.90;;;-1.60;99.90;;;;;;10205971;28;84972;-56
2021/12/21 20:04:44;;;;;;;7.45;4.47;;;-1.80;99.90;;;;;;10205498;28;84225;-56
2021/12/21 20:09:45;;;;;;;12.02;4.65;;;-2.00;99.90;;;;;;10205850;28;84317;-55
2021/12/21 20:14:47;;;;;;;12.25;4.80;;;-1.90;99.90;;;;;;10209609;28;85103;-56
2021/12/21 20:19:49;;;;;;;23.98;5.38;;;-1.90;99.90;;;;;;10206501;28;86893;-54
2021/12/21 20:24:50;;;;;;;16.83;5.68;;;-1.90;99.90;;;;;;10212104;28;84094;-55
2021/12/21 20:29:51;;;;;;;14.45;5.88;;;-2.00;99.90;;;;;;10212137;28;84976;-55
2021/12/21 20:34:52;;;;;;;17.77;4.72;;;-1.90;99.90;;;;;;10212452;28;84115;-61
2021/12/21 20:39:53;;;;;;;7.95;4.60;;;-1.80;99.90;;;;;;10203883;28;85062;-54
2021/12/21 20:44:54;;;;;;;11.75;4.47;;;-1.80;99.90;;;;;;10184451;28;84360;-54
2021/12/21 20:49:54;;;;;;;10.75;3.92;;;-2.10;99.90;;;;;;10191148;28;84241;-54
2021/12/21 20:54:55;;;;;;;13.13;4.80;;;-2.00;99.90;;;;;;10194802;28;84936;-56
2021/12/21 20:59:56;;;;;;;14.23;5.90;;;-2.00;99.90;;;;;;10206824;28;84151;-58
2021/12/21 21:04:56;;;;;;;15.13;5.20;;;-2.00;99.90;;;;;;10199483;28;84788;-54
2021/12/21 21:09:57;;;;;;;13.75;6.07;;;-1.90;99.90;;;;;;10208232;28;84320;-53
2021/12/21 21:14:58;;;;;;;8.85;4.55;;;-1.90;99.90;;;;;;10211821;28;84151;-56
2021/12/21 21:19:59;;;;;;;14.65;5.68;;;-1.90;99.90;;;;;;10206347;28;84290;-55
2021/12/21 21:24:59;;;;;;;13.43;4.28;;;-1.80;99.90;;;;;;10213950;28;85405;-52
2021/12/21 21:30:00;;;;;;;8.77;3.47;;;-1.80;99.90;;;;;;10210075;28;85033;-52
2021/12/21 21:35:02;;;;;;;14.63;5.00;;;-1.80;99.90;;;;;;10209713;28;84313;-56
2021/12/21 21:40:05;;;;;;;10.10;4.60;;;-1.80;99.90;;;;;;10208262;28;84901;-54
2021/12/21 21:45:08;;;;;;;14.30;5.45;;;-1.70;99.90;;;;;;10206659;28;86374;-55
2021/12/21 21:50:10;;;;;;;12.55;5.05;;;-1.80;99.90;;;;;;10210591;28;84097;-54
2021/12/21 21:55:12;;;;;;;9.65;4.82;;;-1.80;99.90;;;;;;10210769;28;86109;-57
2021/12/21 22:00:14;;;;;;;7.20;4.00;;;-1.80;99.90;;;;;;10208783;28;84794;-54
2021/12/21 22:05:15;;;;;;;11.88;4.60;;;-1.90;99.90;;;;;;10208041;28;85029;-54
2021/12/21 22:10:16;;;;;;;10.77;4.13;;;-1.90;99.90;;;;;;10208456;28;84801;-53
2021/12/21 22:15:17;;;;;;;6.20;2.78;;;-1.80;99.90;;;;;;10209269;28;84592;-55
2021/12/21 22:20:17;;;;;;;7.30;3.83;;;-1.90;99.90;;;;;;10209381;28;84228;-53
2021/12/21 22:25:18;;;;;;;12.13;4.97;;;-1.80;99.90;;;;;;10209389;28;85310;-55
2021/12/21 22:30:19;;;;;;;7.75;2.92;;;-1.90;99.90;;;;;;10209116;28;84783;-52
2021/12/21 22:35:19;;;;;;;10.90;4.40;;;-2.10;99.90;;;;;;10209460;28;84268;-52
2021/12/21 22:40:20;;;;;;;8.35;3.47;;;-2.10;99.90;;;;;;10191183;28;87013;-52
2021/12/21 22:45:21;;;;;;;10.38;4.72;;;-2.00;99.90;;;;;;10209216;28;84901;-53
2021/12/21 22:50:23;;;;;;;19.08;5.57;;;-1.90;99.90;;;;;;10207593;28;84798;-57
2021/12/21 22:55:23;;;;;;;11.43;4.40;;;-1.90;99.90;;;;;;10206564;28;85025;-56
2021/12/21 23:00:24;;;;;;;9.50;4.78;;;-1.90;99.90;;;;;;10204099;28;84975;-56
2021/12/21 23:05:25;;;;;;;12.68;4.50;;;-2.10;99.90;;;;;;10209812;28;84197;-58
2021/12/21 23:10:26;;;;;;;12.13;5.05;;;-2.00;99.90;;;;;;10209377;28;85276;-57
2021/12/21 23:15:27;;;;;;;12.50;5.65;;;-2.00;99.90;;;;;;10207107;28;84024;-51
2021/12/21 23:20:28;;;;;;;12.13;5.53;;;-1.90;99.90;;;;;;10207498;28;85905;-56
2021/12/21 23:25:30;;;;;;;12.60;5.50;;;-2.10;99.90;;;;;;10202889;28;84176;-55
2021/12/21 23:30:31;;;;;;;10.43;4.25;;;-2.00;99.90;;;;;;10225371;23;85033;-49
2021/12/21 23:35:32;;;;;;;4.95;2.30;;;-2.30;99.90;;;;;;10204359;28;84193;-47
2021/12/21 23:40:33;;;;;;;8.23;3.72;;;-2.40;99.90;;;;;;10198630;28;84424;-49
2021/12/21 23:45:34;;;;;;;8.13;3.53;;;-2.50;99.90;;;;;;10178692;28;85365;-48
2021/12/21 23:50:36;;;;;;;12.68;4.78;;;-2.40;99.90;;;;;;10183031;28;84744;-47
2021/12/21 23:55:36;;;;;;;7.93;4.32;;;-2.40;99.90;;;;;;10187881;28;84880;-48
